Time;durP1;ratioP1;P1;durP2;ratioP2;P2;SDS_P1;SDS_P2;PMS_P1;PMS_P2;Temp;Humidity;BMP_temperature;BMP_pressure;BME280_temperature;BME280_humidity;BME280_pressure;Samples;Min_cycle;Max_cycle;Signal;HPM_P1;HPM_P2
2022/06/06 00:00:45;;;;;;;31.10;16.92;;;17.10;67.30;;;;;;4997961;28;20026;-67
2022/06/06 00:03:14;;;;;;;37.28;17.83;;;17.00;67.10;;;;;;4998728;28;20125;-68
2022/06/06 00:05:45;;;;;;;33.78;16.42;;;17.00;67.20;;;;;;4998551;28;20078;-68
2022/06/06 00:08:12;;;;;;;30.98;17.15;;;17.00;67.10;;;;;;5014394;28;20095;-68
2022/06/06 00:10:40;;;;;;;34.15;19.25;;;17.00;67.00;;;;;;4991613;28;20030;-70
2022/06/06 00:13:08;;;;;;;39.47;18.98;;;17.00;67.10;;;;;;4996480;28;20018;-68
2022/06/06 00:15:35;;;;;;;33.97;18.05;;;17.00;67.10;;;;;;5001522;28;20122;-67
2022/06/06 00:18:02;;;;;;;36.55;18.50;;;16.90;67.30;;;;;;4994473;28;20096;-68
2022/06/06 00:20:30;;;;;;;36.45;18.25;;;17.00;67.40;;;;;;4997680;28;20470;-69
2022/06/06 00:22:57;;;;;;;35.03;20.02;;;17.00;67.50;;;;;;4992997;28;20045;-68
2022/06/06 00:25:25;;;;;;;30.67;18.20;;;16.90;67.40;;;;;;4997336;28;20034;-69
2022/06/06 00:27:51;;;;;;;33.15;17.80;;;16.90;67.40;;;;;;4995390;28;20038;-67
2022/06/06 00:30:18;;;;;;;35.65;19.40;;;16.90;67.40;;;;;;4995774;28;20132;-67
2022/06/06 00:35:29;;;;;;;38.93;19.53;;;16.90;67.60;;;;;;4992675;28;20076;-68
2022/06/06 00:37:56;;;;;;;27.92;16.40;;;16.80;67.60;;;;;;4995235;28;20049;-68
2022/06/06 00:40:25;;;;;;;31.35;16.95;;;16.80;67.60;;;;;;4997782;28;20041;-67
2022/06/06 00:42:52;;;;;;;31.98;16.75;;;16.80;67.70;;;;;;4997110;28;20046;-67
2022/06/06 00:45:24;;;;;;;26.63;16.77;;;16.80;67.70;;;;;;4990852;28;20038;-68
2022/06/06 00:47:54;;;;;;;31.55;17.67;;;16.80;67.80;;;;;;4995477;28;20034;-69
2022/06/06 00:50:28;;;;;;;35.95;17.00;;;16.80;67.90;;;;;;5002122;28;20118;-67
2022/06/06 00:52:56;;;;;;;31.55;16.65;;;16.70;67.90;;;;;;4997982;28;20412;-69
2022/06/06 00:55:27;;;;;;;24.85;14.93;;;16.80;67.90;;;;;;4994312;28;20030;-67
2022/06/06 00:58:01;;;;;;;30.20;17.85;;;16.70;67.80;;;;;;4992829;28;20027;-68
2022/06/06 01:00:28;;;;;;;26.88;15.55;;;16.80;67.90;;;;;;5004054;28;20030;-69
2022/06/06 01:02:57;;;;;;;25.67;15.20;;;16.70;67.70;;;;;;4998110;28;20042;-67
2022/06/06 01:05:25;;;;;;;27.00;16.15;;;16.70;67.80;;;;;;4997262;28;20054;-69
2022/06/06 01:07:52;;;;;;;23.75;14.55;;;16.70;67.80;;;;;;4998535;28;20512;-67
2022/06/06 01:10:20;;;;;;;23.98;13.32;;;16.70;67.70;;;;;;5002437;28;20497;-69
2022/06/06 01:12:50;;;;;;;27.85;15.60;;;16.60;67.70;;;;;;5001978;28;20078;-69
2022/06/06 01:15:21;;;;;;;24.00;13.15;;;16.60;67.90;;;;;;5004089;28;20438;-68
2022/06/06 01:18:12;;;;;;;22.65;12.40;;;16.60;68.10;;;;;;5001698;28;20042;-69
2022/06/06 01:21:03;;;;;;;22.85;12.20;;;16.60;68.10;;;;;;5006700;28;20049;-67
2022/06/06 01:23:36;;;;;;;19.15;12.00;;;16.60;68.40;;;;;;4998726;28;20050;-67
2022/06/06 01:26:14;;;;;;;21.58;12.38;;;16.60;68.90;;;;;;5008046;28;20047;-68
2022/06/06 01:28:55;;;;;;;17.92;10.70;;;16.50;68.60;;;;;;5006101;28;20041;-67
2022/06/06 01:31:30;;;;;;;18.05;10.20;;;16.50;68.50;;;;;;5003762;28;20033;-67
2022/06/06 01:33:59;;;;;;;18.23;11.27;;;16.60;68.60;;;;;;5005515;28;20122;-67
2022/06/06 01:36:29;;;;;;;16.40;10.45;;;16.50;68.60;;;;;;4999812;28;20102;-68
2022/06/06 01:38:57;;;;;;;18.95;11.30;;;16.50;68.60;;;;;;5000833;28;20038;-68
2022/06/06 01:41:36;;;;;;;17.88;10.55;;;16.50;68.70;;;;;;5070118;28;20084;-68
2022/06/06 01:44:20;;;;;;;16.15;11.00;;;16.50;68.70;;;;;;5089372;28;20183;-67
2022/06/06 01:46:48;;;;;;;17.10;9.77;;;16.40;68.70;;;;;;5087279;28;20039;-68
2022/06/06 01:49:16;;;;;;;18.58;10.13;;;16.40;68.70;;;;;;5090355;28;20032;-67
2022/06/06 01:51:42;;;;;;;20.35;10.77;;;16.40;68.70;;;;;;5084040;28;20028;-67
2022/06/06 01:54:14;;;;;;;19.35;9.25;;;16.40;68.60;;;;;;5082106;28;20043;-68
2022/06/06 01:56:40;;;;;;;13.25;8.00;;;16.40;68.80;;;;;;5083457;28;20042;-69
2022/06/06 01:59:07;;;;;;;14.52;9.20;;;16.40;68.70;;;;;;5084414;28;20080;-68
2022/06/06 02:01:33;;;;;;;19.38;9.43;;;16.40;68.80;;;;;;5088510;28;20128;-69
2022/06/06 02:04:00;;;;;;;14.95;9.20;;;16.40;69.00;;;;;;5088245;28;20059;-67
2022/06/06 02:06:26;;;;;;;16.92;9.23;;;16.40;69.00;;;;;;5086146;28;20033;-68
2022/06/06 02:08:53;;;;;;;22.80;9.88;;;16.40;69.10;;;;;;5085863;28;20123;-68
2022/06/06 02:11:20;;;;;;;33.63;10.57;;;16.40;69.50;;;;;;5083673;28;20047;-67
2022/06/06 02:13:46;;;;;;;15.27;8.98;;;16.40;69.90;;;;;;5082843;28;20111;-68
2022/06/06 02:16:14;;;;;;;19.83;8.25;;;16.40;70.20;;;;;;5082128;28;20079;-67
2022/06/06 02:18:40;;;;;;;20.27;8.55;;;16.40;70.20;;;;;;5080728;28;20485;-68
2022/06/06 02:21:07;;;;;;;17.33;7.15;;;16.40;70.60;;;;;;5091201;28;20040;-68
2022/06/06 02:23:34;;;;;;;17.10;7.43;;;16.40;70.80;;;;;;5081307;28;20043;-67
2022/06/06 02:26:01;;;;;;;18.50;7.38;;;16.40;71.00;;;;;;5084699;28;20660;-67
2022/06/06 02:28:28;;;;;;;19.85;7.57;;;16.40;71.10;;;;;;5084660;28;20032;-66
2022/06/06 02:30:54;;;;;;;21.08;7.60;;;16.40;71.00;;;;;;5084896;28;20400;-68
2022/06/06 02:33:21;;;;;;;17.00;7.85;;;16.40;71.20;;;;;;5076259;28;20537;-67
2022/06/06 02:35:48;;;;;;;11.48;6.18;;;16.40;70.70;;;;;;5079533;28;20032;-67
2022/06/06 02:38:15;;;;;;;19.00;8.38;;;16.40;70.00;;;;;;5080493;28;20116;-66
2022/06/06 02:40:44;;;;;;;24.33;8.30;;;16.40;70.20;;;;;;5041207;28;20090;-67
2022/06/06 02:43:11;;;;;;;14.95;6.55;;;16.30;70.10;;;;;;5002537;28;20034;-68
2022/06/06 02:45:38;;;;;;;13.93;6.80;;;16.30;70.20;;;;;;4994766;28;20076;-67
2022/06/06 02:48:06;;;;;;;11.25;6.25;;;16.30;70.20;;;;;;5004624;28;20519;-67
2022/06/06 02:50:33;;;;;;;12.40;6.00;;;16.20;70.20;;;;;;4999956;28;20105;-68
2022/06/06 02:53:00;;;;;;;12.32;6.53;;;16.20;70.00;;;;;;5000764;28;20038;-67
2022/06/06 02:55:27;;;;;;;13.98;6.53;;;16.20;70.00;;;;;;4995388;28;20045;-68
2022/06/06 02:57:54;;;;;;;12.30;7.25;;;16.20;69.90;;;;;;4996679;28;20473;-67
2022/06/06 03:00:29;;;;;;;15.43;6.45;;;16.20;69.80;;;;;;4997496;28;20029;-69
2022/06/06 03:02:56;;;;;;;10.40;7.53;;;16.20;69.70;;;;;;5006846;28;20133;-69
2022/06/06 03:05:30;;;;;;;11.23;6.95;;;16.20;69.80;;;;;;4997902;28;20498;-68
2022/06/06 03:08:12;;;;;;;13.60;7.15;;;16.20;69.70;;;;;;5002476;28;20130;-69
2022/06/06 03:11:13;;;;;;;8.43;5.50;;;16.20;69.70;;;;;;4991949;28;20026;-68
2022/06/06 03:14:04;;;;;;;10.90;5.38;;;16.20;69.70;;;;;;4996840;28;20481;-67
2022/06/06 03:23:26;;;;;;;18.10;5.88;;;16.10;69.80;;;;;;5000670;28;20135;-68
2022/06/06 03:25:56;;;;;;;14.77;6.47;;;16.10;70.20;;;;;;4995525;28;20384;-67
2022/06/06 03:28:55;;;;;;;14.80;5.70;;;16.10;69.90;;;;;;4998658;28;20026;-69
2022/06/06 03:31:37;;;;;;;10.10;5.80;;;16.10;69.90;;;;;;5004283;28;20121;-68
2022/06/06 03:34:09;;;;;;;21.25;6.53;;;16.10;69.80;;;;;;4998560;28;20035;-67
2022/06/06 03:37:10;;;;;;;14.85;5.82;;;16.00;69.90;;;;;;4998677;28;20022;-68
2022/06/06 03:40:07;;;;;;;17.67;6.35;;;16.00;70.30;;;;;;5000223;28;20045;-67
2022/06/06 03:42:53;;;;;;;14.57;6.32;;;16.00;70.30;;;;;;4990845;28;20042;-67
2022/06/06 03:45:22;;;;;;;;;;;16.00;70.50;;;;;;5001738;28;20030;-67
2022/06/06 03:48:17;;;;;;;11.40;5.18;;;16.00;69.90;;;;;;4998518;28;19909;-67
2022/06/06 03:51:14;;;;;;;8.23;5.32;;;16.00;69.20;;;;;;4996095;28;20482;-68
2022/06/06 03:54:15;;;;;;;11.40;5.25;;;16.00;68.70;;;;;;5009626;28;20042;-67
2022/06/06 03:57:19;;;;;;;6.63;4.32;;;16.00;68.20;;;;;;5010229;28;20038;-67
2022/06/06 03:59:50;;;;;;;7.18;4.53;;;16.00;67.90;;;;;;4996243;28;20031;-67
2022/06/06 04:02:54;;;;;;;9.10;3.60;;;15.90;67.40;;;;;;4996319;28;20058;-69
2022/06/06 04:05:22;;;;;;;8.35;3.50;;;15.90;67.20;;;;;;4998790;28;20026;-68
2022/06/06 04:07:49;;;;;;;11.05;4.45;;;15.90;66.70;;;;;;4990451;28;20478;-67
2022/06/06 04:10:16;;;;;;;13.00;3.50;;;15.80;65.70;;;;;;4995618;28;20648;-67
2022/06/06 04:13:12;;;;;;;15.85;3.95;;;15.80;66.10;;;;;;5004763;28;20031;-71
2022/06/06 04:15:48;;;;;;;22.70;14.18;;;15.80;67.00;;;;;;4991564;28;20079;-65
2022/06/06 04:18:35;;;;;;;21.27;14.55;;;15.80;66.80;;;;;;4994440;28;20117;-66
2022/06/06 04:21:25;;;;;;;16.45;10.00;;;15.80;66.40;;;;;;4994979;28;20050;-64
2022/06/06 04:24:12;;;;;;;10.10;6.10;;;15.80;66.20;;;;;;4993804;28;20083;-69
2022/06/06 04:27:04;;;;;;;13.55;4.78;;;15.80;66.10;;;;;;5002827;28;20042;-72
2022/06/06 04:29:57;;;;;;;5.10;3.53;;;15.70;66.10;;;;;;4990017;28;20624;-68
2022/06/06 04:32:35;;;;;;;9.45;3.95;;;15.70;66.70;;;;;;5002309;28;20392;-71
2022/06/06 04:35:31;;;;;;;6.10;3.42;;;15.70;66.60;;;;;;5000555;28;20039;-71
2022/06/06 04:38:02;;;;;;;8.90;5.03;;;15.70;66.50;;;;;;4994764;28;20497;-69
2022/06/06 04:40:43;;;;;;;35.42;25.70;;;15.70;66.60;;;;;;4998589;28;20481;-71
2022/06/06 04:43:32;;;;;;;34.75;20.55;;;15.70;66.90;;;;;;4994386;28;20041;-69
2022/06/06 04:46:09;;;;;;;21.30;14.18;;;15.70;67.20;;;;;;4990596;28;20843;-69
2022/06/06 04:48:37;;;;;;;23.20;8.68;;;15.60;67.20;;;;;;4992834;28;20500;-68
2022/06/06 04:51:05;;;;;;;9.98;5.22;;;15.60;67.30;;;;;;4992119;28;20054;-69
2022/06/06 04:53:37;;;;;;;6.82;4.45;;;15.60;67.20;;;;;;4993960;28;20041;-70
2022/06/06 04:56:04;;;;;;;7.55;3.60;;;15.60;67.00;;;;;;4991979;28;20038;-68
2022/06/06 04:58:34;;;;;;;24.25;4.40;;;15.60;67.00;;;;;;4990100;28;20030;-67
2022/06/06 05:01:03;;;;;;;19.83;5.07;;;15.50;67.00;;;;;;4991516;28;20030;-67
2022/06/06 05:03:29;;;;;;;18.77;3.67;;;15.50;67.10;;;;;;4993571;28;20038;-69
2022/06/06 05:06:08;;;;;;;12.90;4.30;;;15.50;67.10;;;;;;4993500;28;20052;-70
2022/06/06 05:08:37;;;;;;;13.88;3.28;;;15.50;66.80;;;;;;4994598;28;20041;-70
2022/06/06 05:11:43;;;;;;;5.47;2.50;;;15.50;66.60;;;;;;4994347;28;20027;-68
2022/06/06 05:14:47;;;;;;;5.50;2.90;;;15.50;66.50;;;;;;5010784;28;20034;-67
2022/06/06 05:17:19;;;;;;;5.47;3.80;;;15.40;66.40;;;;;;5001933;28;20038;-67
2022/06/06 05:20:04;;;;;;;8.13;2.75;;;15.50;66.40;;;;;;4996002;28;20506;-71
2022/06/06 05:22:36;;;;;;;7.82;2.95;;;15.40;66.40;;;;;;4995206;28;20038;-72
2022/06/06 05:25:24;;;;;;;5.07;2.65;;;15.40;66.30;;;;;;4992696;28;20026;-68
2022/06/06 05:28:21;;;;;;;6.05;2.33;;;15.40;66.30;;;;;;4992639;28;20041;-70
2022/06/06 05:30:56;;;;;;;3.83;2.33;;;15.40;66.20;;;;;;4995703;28;20185;-68
2022/06/06 05:33:40;;;;;;;6.30;2.53;;;15.30;66.10;;;;;;4996887;28;21584;-67
2022/06/06 05:36:41;;;;;;;4.72;2.58;;;15.30;66.00;;;;;;5001732;28;20034;-67
2022/06/06 05:39:29;;;;;;;4.35;2.83;;;15.30;66.10;;;;;;4995258;28;20558;-67
2022/06/06 05:42:13;;;;;;;10.55;3.25;;;15.30;66.00;;;;;;4997019;28;20049;-70
2022/06/06 05:45:02;;;;;;;8.45;3.03;;;15.30;66.00;;;;;;4995469;28;20044;-68
2022/06/06 05:47:54;;;;;;;6.00;2.92;;;15.30;66.20;;;;;;4998528;28;20031;-67
2022/06/06 05:50:50;;;;;;;6.30;2.90;;;15.30;66.30;;;;;;4991423;28;20532;-67
2022/06/06 05:53:19;;;;;;;11.82;3.70;;;15.20;66.10;;;;;;4996720;28;20040;-70
2022/06/06 05:56:13;;;;;;;8.45;2.55;;;15.20;65.90;;;;;;4992122;28;20036;-71
2022/06/06 05:58:57;;;;;;;8.45;3.05;;;15.20;65.90;;;;;;4992318;28;20026;-67
2022/06/06 06:01:52;;;;;;;7.38;3.60;;;15.20;65.70;;;;;;4994055;28;20069;-71
2022/06/06 06:04:30;;;;;;;11.23;3.28;;;15.20;65.70;;;;;;4999287;28;20033;-70
2022/06/06 06:07:37;;;;;;;8.57;2.90;;;15.20;66.20;;;;;;4996334;28;20023;-69
2022/06/06 06:10:21;;;;;;;9.27;3.05;;;15.30;66.90;;;;;;4996185;28;20416;-70
2022/06/06 06:12:57;;;;;;;7.20;3.15;;;15.20;67.10;;;;;;4996266;28;20027;-67
2022/06/06 06:15:32;;;;;;;9.02;3.83;;;15.20;67.10;;;;;;5000516;28;20065;-70
2022/06/06 06:18:01;;;;;;;17.33;4.28;;;15.20;66.90;;;;;;4999059;28;20034;-67
2022/06/06 06:20:39;;;;;;;8.57;3.55;;;15.30;66.80;;;;;;4999318;28;20121;-69
2022/06/06 06:23:10;;;;;;;9.68;3.95;;;15.30;67.00;;;;;;4998594;28;20096;-70
2022/06/06 06:25:40;;;;;;;9.63;5.03;;;15.30;67.10;;;;;;4996190;28;20019;-69
2022/06/06 06:28:10;;;;;;;18.50;4.10;;;15.30;67.20;;;;;;5002061;28;20436;-69
2022/06/06 06:31:07;;;;;;;51.97;26.98;;;15.30;67.50;;;;;;4994909;28;20551;-68
2022/06/06 06:34:01;;;;;;;33.92;19.77;;;15.30;67.70;;;;;;5003135;28;20034;-67
2022/06/06 06:36:44;;;;;;;18.73;12.30;;;15.30;67.60;;;;;;4999398;28;20484;-69
2022/06/06 06:39:26;;;;;;;19.58;8.60;;;15.40;67.50;;;;;;5065656;28;20417;-68
2022/06/06 06:42:14;;;;;;;11.88;6.22;;;15.40;67.30;;;;;;4995688;28;20058;-67
2022/06/06 06:44:48;;;;;;;14.82;5.50;;;15.40;67.40;;;;;;4996834;28;20033;-67
2022/06/06 06:47:19;;;;;;;14.65;4.63;;;15.40;67.60;;;;;;4998269;28;20154;-68
2022/06/06 06:49:53;;;;;;;14.32;5.45;;;15.40;67.90;;;;;;4997101;28;20078;-68
2022/06/06 06:52:31;;;;;;;11.00;4.65;;;15.40;68.20;;;;;;4993338;28;20436;-70
2022/06/06 06:55:21;;;;;;;18.73;6.03;;;15.40;68.50;;;;;;5000609;28;20058;-67
2022/06/06 06:58:00;;;;;;;12.40;5.18;;;15.40;69.00;;;;;;4994670;28;20409;-69
2022/06/06 07:00:29;;;;;;;20.92;6.00;;;15.40;69.50;;;;;;5007365;28;20037;-67
2022/06/06 07:09:37;;;;;;;9.00;4.75;;;15.50;70.10;;;;;;4992770;28;20135;-67
2022/06/06 07:12:48;;;;;;;12.82;4.95;;;15.50;70.30;;;;;;4994744;28;20555;-67
2022/06/06 07:15:26;;;;;;;12.98;4.95;;;15.50;70.40;;;;;;4995935;28;20109;-67
2022/06/06 07:17:58;;;;;;;9.35;4.20;;;15.60;70.70;;;;;;4993862;28;20526;-68
2022/06/06 07:20:27;;;;;;;10.05;3.72;;;15.60;70.90;;;;;;4993659;28;20034;-67
2022/06/06 07:23:03;;;;;;;11.57;3.90;;;15.60;71.70;;;;;;4995826;28;20103;-67
2022/06/06 07:25:39;;;;;;;4.68;3.28;;;15.60;72.30;;;;;;4997100;28;20408;-67
2022/06/06 07:28:10;;;;;;;;;;;15.70;71.90;;;;;;4999861;28;20026;-70
2022/06/06 07:30:47;;;;;;;8.10;3.25;;;15.70;72.00;;;;;;4998649;28;20251;-70
2022/06/06 07:33:37;;;;;;;10.20;4.28;;;15.80;72.30;;;;;;5003029;28;20025;-67
2022/06/06 07:36:40;;;;;;;15.52;4.97;;;15.80;73.20;;;;;;4996921;28;20033;-67
2022/06/06 07:39:23;;;;;;;12.80;4.03;;;15.80;73.20;;;;;;4996137;28;20525;-71
2022/06/06 07:42:35;;;;;;;13.43;3.88;;;15.90;73.60;;;;;;4998320;28;20070;-67
2022/06/06 07:45:24;;;;;;;14.80;5.35;;;15.90;73.90;;;;;;4994169;28;20556;-67
2022/06/06 07:47:51;;;;;;;19.85;4.40;;;16.00;74.20;;;;;;4991571;28;20061;-70
2022/06/06 07:50:26;;;;;;;29.35;10.32;;;16.00;74.70;;;;;;4997983;28;20098;-70
2022/06/06 07:53:19;;;;;;;42.20;20.33;;;16.00;75.10;;;;;;4995693;28;20125;-68
2022/06/06 07:55:51;;;;;;;33.30;19.20;;;16.10;75.20;;;;;;4995335;28;20284;-67
2022/06/06 07:58:25;;;;;;;36.67;16.75;;;16.20;75.10;;;;;;4999320;28;20523;-67
2022/06/06 08:01:22;;;;;;;27.70;13.48;;;16.20;75.00;;;;;;4994697;28;20058;-68
2022/06/06 08:04:21;;;;;;;20.85;11.43;;;16.30;74.50;;;;;;5001598;28;20066;-68
2022/06/06 08:06:53;;;;;;;30.65;10.95;;;16.40;74.30;;;;;;5005537;28;20039;-68
2022/06/06 08:09:31;;;;;;;27.55;10.02;;;16.40;74.10;;;;;;4995222;28;20033;-67
2022/06/06 08:12:17;;;;;;;25.55;8.32;;;16.50;73.90;;;;;;4999851;28;20034;-67
2022/06/06 08:14:52;;;;;;;16.35;8.77;;;16.50;73.70;;;;;;4994820;28;20053;-68
2022/06/06 08:18:09;;;;;;;25.23;8.73;;;16.60;73.20;;;;;;4999653;28;20500;-68
2022/06/06 08:20:58;;;;;;;31.73;13.60;;;16.70;73.00;;;;;;5010216;28;20077;-68
2022/06/06 08:23:25;;;;;;;40.25;16.88;;;16.80;72.20;;;;;;4996026;28;20038;-71
2022/06/06 08:25:54;;;;;;;30.95;14.23;;;16.80;71.70;;;;;;4998582;28;20058;-67
2022/06/06 08:28:21;;;;;;;29.58;12.35;;;16.80;71.50;;;;;;4994221;28;20065;-72
2022/06/06 08:30:48;;;;;;;27.73;11.68;;;16.90;71.40;;;;;;4994116;28;20054;-71
2022/06/06 08:33:14;;;;;;;33.10;11.50;;;17.00;71.30;;;;;;4995712;28;20099;-67
2022/06/06 08:35:58;;;;;;;24.17;9.40;;;17.00;71.40;;;;;;4995760;28;20031;-71
2022/06/06 08:39:02;;;;;;;25.38;8.60;;;17.10;71.00;;;;;;4995977;28;20121;-68
2022/06/06 08:41:54;;;;;;;23.38;8.98;;;17.20;69.60;;;;;;4998269;28;20089;-72
2022/06/06 08:44:52;;;;;;;14.55;6.13;;;17.30;69.20;;;;;;4996230;28;20049;-72
2022/06/06 08:47:32;;;;;;;27.80;7.10;;;17.30;69.30;;;;;;4999376;28;20037;-67
2022/06/06 08:53:02;;;;;;;25.73;6.82;;;17.50;68.50;;;;;;4998181;28;20103;-68
2022/06/06 08:55:47;;;;;;;19.48;6.53;;;17.60;68.00;;;;;;5000334;28;20497;-69
2022/06/06 08:58:41;;;;;;;12.73;6.23;;;17.70;67.60;;;;;;4994721;28;20038;-73
2022/06/06 09:01:31;;;;;;;23.55;5.72;;;17.70;67.30;;;;;;4993506;28;20034;-67
2022/06/06 09:04:46;;;;;;;25.42;5.82;;;17.80;67.10;;;;;;5009590;28;20066;-68
2022/06/06 09:07:41;;;;;;;16.92;5.55;;;17.90;67.30;;;;;;4992855;28;20081;-72
2022/06/06 09:10:46;;;;;;;12.80;5.43;;;18.00;66.70;;;;;;4994635;28;20022;-72
2022/06/06 09:13:58;;;;;;;16.52;5.60;;;18.10;66.90;;;;;;4995415;28;20581;-72
2022/06/06 09:17:01;;;;;;;14.80;4.80;;;18.20;67.30;;;;;;4998786;28;20142;-70
2022/06/06 09:19:33;;;;;;;17.88;5.82;;;18.30;66.20;;;;;;4994664;28;20042;-70
2022/06/06 09:22:46;;;;;;;14.30;6.35;;;18.40;65.60;;;;;;4993622;28;20039;-68
2022/06/06 09:25:32;;;;;;;12.02;5.50;;;18.50;63.50;;;;;;4998774;28;20061;-73
2022/06/06 09:28:20;;;;;;;16.48;4.63;;;18.50;64.20;;;;;;4995545;28;20064;-71
2022/06/06 09:31:01;;;;;;;15.75;5.00;;;18.60;63.40;;;;;;4994135;28;20114;-69
2022/06/06 09:34:04;;;;;;;23.05;10.52;;;18.70;62.80;;;;;;4997712;28;20033;-73
2022/06/06 09:36:38;;;;;;;76.18;54.78;;;18.90;62.80;;;;;;5000097;28;20041;-68
2022/06/06 09:39:15;;;;;;;42.85;28.88;;;19.00;63.20;;;;;;5003081;28;20029;-69
2022/06/06 09:41:54;;;;;;;20.92;15.52;;;19.00;63.60;;;;;;5000087;28;20099;-67
2022/06/06 09:44:48;;;;;;;17.08;8.82;;;19.10;63.30;;;;;;4997873;28;20532;-68
2022/06/06 09:47:39;;;;;;;8.02;5.78;;;19.20;62.20;;;;;;4996399;28;20083;-69
2022/06/06 09:50:30;;;;;;;11.15;5.50;;;19.40;61.60;;;;;;4997449;28;20553;-73
2022/06/06 09:53:14;;;;;;;29.67;19.27;;;19.50;61.60;;;;;;5001826;28;20552;-70
2022/06/06 09:59:09;;;;;;;15.48;10.45;;;19.70;61.00;;;;;;4996718;28;20071;-73
2022/06/06 10:02:00;;;;;;;13.43;7.97;;;19.80;60.80;;;;;;5000896;28;20047;-74
2022/06/06 10:05:12;;;;;;;11.15;6.35;;;19.90;60.20;;;;;;4998483;28;20091;-68
2022/06/06 10:08:11;;;;;;;12.70;8.13;;;20.00;60.00;;;;;;5060870;28;20569;-71
2022/06/06 10:10:56;;;;;;;16.67;8.55;;;20.10;57.80;;;;;;4995696;28;20034;-68
2022/06/06 10:13:37;;;;;;;14.45;9.32;;;20.20;57.40;;;;;;4996625;28;20056;-72
2022/06/06 10:16:10;;;;;;;17.88;9.52;;;20.40;56.70;;;;;;4998951;28;20038;-72
2022/06/06 10:19:05;;;;;;;31.63;13.38;;;20.50;57.60;;;;;;4998310;28;20088;-73
2022/06/06 10:22:02;;;;;;;27.33;15.67;;;20.60;57.30;;;;;;4999473;28;20092;-73
2022/06/06 10:24:56;;;;;;;33.00;17.50;;;20.70;57.40;;;;;;5001525;28;20037;-72
2022/06/06 10:27:50;;;;;;;38.38;22.00;;;20.80;58.00;;;;;;5003453;28;20042;-73
2022/06/06 10:30:55;;;;;;;35.88;22.55;;;20.90;58.00;;;;;;5000302;28;20030;-73
2022/06/06 10:33:27;;;;;;;39.28;26.95;;;21.00;58.00;;;;;;5027025;28;20038;-74
2022/06/06 10:36:25;;;;;;;42.55;28.15;;;21.10;56.40;;;;;;4999096;28;20042;-69
2022/06/06 10:39:00;;;;;;;44.90;30.00;;;21.20;55.90;;;;;;4996276;28;20030;-75
2022/06/06 10:41:42;;;;;;;48.67;31.52;;;21.30;55.20;;;;;;4993467;28;20548;-69
2022/06/06 10:44:33;;;;;;;51.35;34.90;;;21.40;55.30;;;;;;5001220;28;20096;-68
2022/06/06 10:47:18;;;;;;;56.50;35.38;;;21.50;54.90;;;;;;4998116;28;20031;-71
2022/06/06 10:49:47;;;;;;;53.38;34.28;;;21.60;55.20;;;;;;4995872;28;20384;-70
2022/06/06 10:52:41;;;;;;;48.42;33.45;;;21.70;54.80;;;;;;4998228;28;20104;-67
2022/06/06 10:55:35;;;;;;;65.78;43.85;;;21.70;54.30;;;;;;4999682;28;20030;-71
2022/06/06 10:58:29;;;;;;;52.30;32.95;;;21.80;54.10;;;;;;4996376;28;20066;-69
2022/06/06 11:01:18;;;;;;;42.95;25.42;;;21.90;54.70;;;;;;5001470;28;20482;-70
2022/06/06 11:04:05;;;;;;;35.45;23.67;;;22.00;54.20;;;;;;5000039;28;20523;-69
2022/06/06 11:07:03;;;;;;;49.58;26.30;;;22.10;53.80;;;;;;4999919;28;20034;-68
2022/06/06 11:09:48;;;;;;;36.05;26.38;;;22.20;55.00;;;;;;4994731;28;20381;-67
2022/06/06 11:12:45;;;;;;;44.78;27.08;;;22.30;55.40;;;;;;4995631;28;20022;-68
2022/06/06 11:15:12;;;;;;;42.63;24.02;;;22.40;55.40;;;;;;4998901;28;20030;-73
2022/06/06 11:18:00;;;;;;;30.40;20.08;;;22.40;54.70;;;;;;4992883;28;20033;-73
2022/06/06 11:20:39;;;;;;;25.33;17.77;;;22.50;53.90;;;;;;4994807;28;20396;-73
2022/06/06 11:23:47;;;;;;;32.47;15.48;;;22.60;53.20;;;;;;4996552;28;20040;-68
2022/06/06 11:27:01;;;;;;;21.27;13.32;;;22.70;50.90;;;;;;4995378;28;20042;-69
2022/06/06 11:29:36;;;;;;;22.45;12.75;;;22.80;49.20;;;;;;5033772;28;20044;-68
2022/06/06 11:32:13;;;;;;;25.67;11.77;;;22.90;47.70;;;;;;5000495;28;20037;-74
2022/06/06 11:35:05;;;;;;;22.65;11.55;;;23.00;47.90;;;;;;4998669;28;20068;-68
2022/06/06 11:37:34;;;;;;;16.02;10.65;;;23.10;49.20;;;;;;4995257;28;20376;-68
2022/06/06 11:40:23;;;;;;;22.95;12.25;;;23.20;48.10;;;;;;4996733;28;20042;-70
2022/06/06 11:43:23;;;;;;;18.00;10.35;;;23.20;46.10;;;;;;5004382;28;20043;-67
2022/06/06 11:46:12;;;;;;;17.95;9.07;;;23.30;46.40;;;;;;4998897;28;20049;-72
2022/06/06 11:49:04;;;;;;;18.23;7.45;;;23.40;44.30;;;;;;5001516;28;20035;-73
2022/06/06 11:51:52;;;;;;;13.85;6.80;;;23.40;45.50;;;;;;5008436;28;20038;-68
2022/06/06 11:54:52;;;;;;;11.85;5.75;;;23.50;44.90;;;;;;5000088;28;20038;-68
2022/06/06 11:57:56;;;;;;;11.23;4.50;;;23.60;42.80;;;;;;5000014;28;20044;-74
2022/06/06 12:00:28;;;;;;;3.60;2.20;;;23.70;43.10;;;;;;4992561;28;20039;-72
2022/06/06 12:03:16;;;;;;;9.98;3.08;;;23.70;41.70;;;;;;4991246;28;20437;-68
2022/06/06 12:06:03;;;;;;;5.13;2.47;;;23.80;40.60;;;;;;4994138;28;20037;-72
2022/06/06 12:08:47;;;;;;;11.23;3.10;;;23.90;40.50;;;;;;4996076;28;20489;-68
2022/06/06 12:11:41;;;;;;;3.97;3.58;;;23.90;39.30;;;;;;4997445;28;20034;-70
2022/06/06 12:14:29;;;;;;;5.38;3.13;;;24.00;37.70;;;;;;4996681;28;20068;-73
2022/06/06 12:17:18;;;;;;;7.78;2.50;;;24.10;38.00;;;;;;4997785;28;20116;-70
2022/06/06 12:20:16;;;;;;;8.43;2.50;;;24.20;38.30;;;;;;5031972;28;20114;-68
2022/06/06 12:23:07;;;;;;;10.18;2.50;;;24.30;39.10;;;;;;4993615;28;20034;-73
2022/06/06 12:26:15;;;;;;;8.50;2.25;;;24.30;38.20;;;;;;4993593;28;20060;-73
2022/06/06 12:29:18;;;;;;;8.48;1.90;;;24.30;39.00;;;;;;5047454;28;20033;-74
2022/06/06 12:31:53;;;;;;;5.00;1.30;;;24.40;38.20;;;;;;5049070;28;20021;-69
2022/06/06 12:34:25;;;;;;;;;;;24.40;37.50;;;;;;5088733;27;20388;-68
2022/06/06 12:37:12;;;;;;;6.18;1.10;;;24.40;37.80;;;;;;5000575;28;19905;-68
2022/06/06 12:39:57;;;;;;;2.40;1.17;;;24.50;38.60;;;;;;4993307;28;20098;-74
2022/06/06 12:42:32;;;;;;;4.65;1.40;;;24.50;38.10;;;;;;5000648;28;20048;-71
2022/06/06 12:45:16;;;;;;;1.05;0.88;;;24.60;38.50;;;;;;4996446;28;20038;-68
2022/06/06 12:48:14;;;;;;;5.45;1.67;;;24.60;37.00;;;;;;4998398;28;20035;-69
2022/06/06 12:50:47;;;;;;;13.57;4.07;;;24.70;37.70;;;;;;4993872;28;20027;-75
2022/06/06 12:53:47;;;;;;;7.47;3.60;;;24.70;37.70;;;;;;4999599;28;20117;-70
2022/06/06 12:56:45;;;;;;;12.38;5.07;;;24.70;38.40;;;;;;4996734;28;20042;-68
2022/06/06 12:59:33;;;;;;;6.45;3.80;;;24.80;38.60;;;;;;4997029;28;20030;-68
2022/06/06 13:02:29;;;;;;;8.30;3.60;;;24.90;37.70;;;;;;5000090;28;20038;-71
2022/06/06 13:05:25;;;;;;;8.55;3.47;;;24.90;37.70;;;;;;5054554;28;20036;-71
2022/06/06 13:08:03;;;;;;;;;;;24.90;37.80;;;;;;4998739;28;20038;-73
2022/06/06 13:10:44;;;;;;;6.50;3.47;;;25.00;38.00;;;;;;4998389;28;19910;-68
2022/06/06 13:13:29;;;;;;;7.28;3.50;;;25.00;37.70;;;;;;4992519;28;20034;-75
2022/06/06 13:16:32;;;;;;;10.40;4.43;;;25.00;37.70;;;;;;4995687;28;20051;-68
2022/06/06 13:19:46;;;;;;;12.73;6.00;;;25.00;38.60;;;;;;4994709;28;20066;-73
2022/06/06 13:22:28;;;;;;;10.35;6.00;;;25.00;39.40;;;;;;5039515;28;20439;-69
2022/06/06 13:25:32;;;;;;;12.32;5.45;;;25.00;39.90;;;;;;4993773;28;20079;-74
2022/06/06 13:28:16;;;;;;;10.43;6.57;;;25.00;40.20;;;;;;4993826;28;20061;-69
2022/06/06 13:30:48;;;;;;;12.73;5.97;;;25.00;40.20;;;;;;4994849;28;20109;-74
2022/06/06 13:33:40;;;;;;;13.13;5.35;;;25.00;40.30;;;;;;4999863;28;20065;-72
2022/06/06 13:36:22;;;;;;;11.88;5.63;;;25.00;40.60;;;;;;4994934;28;20030;-69
2022/06/06 13:39:07;;;;;;;10.20;4.82;;;24.90;40.70;;;;;;4998372;28;20045;-68
2022/06/06 13:41:42;;;;;;;10.73;5.13;;;24.90;39.90;;;;;;5000510;28;20209;-75
2022/06/06 13:44:34;;;;;;;10.15;4.95;;;24.80;40.30;;;;;;4999870;28;20093;-71
2022/06/06 13:47:31;;;;;;;8.27;5.45;;;24.80;40.20;;;;;;4999150;28;20121;-74
2022/06/06 13:50:16;;;;;;;8.30;4.28;;;24.80;39.70;;;;;;4997513;28;20022;-69
2022/06/06 13:53:04;;;;;;;9.00;4.25;;;24.80;39.90;;;;;;4998850;28;20109;-68
2022/06/06 13:55:39;;;;;;;11.60;4.05;;;24.70;39.20;;;;;;4994350;28;20054;-70
2022/06/06 13:58:31;;;;;;;9.10;3.67;;;24.70;38.70;;;;;;4994069;28;20038;-70
2022/06/06 14:01:26;;;;;;;6.43;3.85;;;24.70;38.70;;;;;;5072309;28;20538;-68
2022/06/06 14:04:31;;;;;;;10.43;4.07;;;24.60;39.00;;;;;;4993476;28;20030;-72
2022/06/06 14:07:32;;;;;;;9.52;4.38;;;24.60;37.90;;;;;;4994077;28;20066;-68
2022/06/06 14:10:04;;;;;;;7.10;3.75;;;24.60;37.20;;;;;;4997375;28;20034;-69
2022/06/06 14:12:36;;;;;;;11.00;4.78;;;24.50;37.20;;;;;;4996243;28;20060;-72
2022/06/06 14:15:12;;;;;;;9.40;4.15;;;24.50;37.50;;;;;;4992147;28;20042;-73